Airfield :
LOGIN :

Register | Disclaimer

   EN    FR    IT 

 










Legend :    VFR   Marginal VFR   IFR   Intensive IFR   Very Intensive IFR
Visi :
Ceiling :
>= 8 km
>= 3000ft
5 to 8 km
1000 to 3000 ft
1500m to 5 km
500 to 1000 ft
800 to 1500m
200 to 500 ft
< 800m
< 200 ft
Symbols :   Thunderstorms  Fog  Heavy snow  Heavy precipitations  Wind > 20 kt
SIGMETs :     Misc.  Thunderstorms  Icing  Turbulence  Mountain Waves  Volcanic Ashes






- Airport Elevation : 393 ft
- IATA code : TYF


ESST - Torsby

CURRENT METAR :
  • 070850Z 19012KT 150V240 9999 FEW028 SCT039 BKN053 15/11 Q1004

EXPIRED METARs :
  • 070820Z 19010KT 140V230 9999 -RA FEW017 OVC031 14/11 Q1005
  • 070750Z 16007KT 100V200 9999 SCT018 BKN025 13/11 Q1005
  • 070720Z 16006KT 110V210 9999 BKN018 BKN027 12/11 Q1005
  • 070650Z AUTO 16006KT 120V180 8000 -DZ BKN017/// OVC024/// 11/10 Q1006

TAF N/A



MET'MAP, your aeronautical weather chart ! - Copyright ORBIFLY December 2007 - Disclaimer

ORBIFLY MET'MAP TEAM :

Programming & Development : Alexandra Zaïnal
Original concept : Baudouin d'Aumeries
Technical & hardware support : Manuel Goepfert
Assistance : Marc-Olivier Méhu




SOURCES & CREDITS :

   NOAA